createdAt,value
2018-03-24T00:00:08.857Z,34.05
2018-03-24T00:05:11.902Z,33.55
2018-03-24T00:10:15.013Z,30.02
2018-03-24T00:15:17.885Z,31.12
2018-03-24T00:20:21.545Z,30.25
2018-03-24T00:25:24.732Z,29.10
2018-03-24T00:30:27.655Z,33.60
2018-03-24T00:35:33.282Z,30.85
2018-03-24T00:40:38.668Z,29.50
2018-03-24T00:45:41.573Z,29.92
2018-03-24T00:50:44.734Z,28.83
2018-03-24T00:55:48.235Z,28.65
2018-03-24T01:00:51.081Z,27.60
2018-03-24T01:05:53.901Z,26.73
2018-03-24T01:10:57.727Z,28.17
2018-03-24T01:16:00.875Z,30.10
2018-03-24T01:21:04.428Z,28.60
2018-03-24T01:26:08.104Z,29.10
2018-03-24T01:31:11.021Z,28.38
2018-03-24T01:36:13.948Z,30.17
2018-03-24T01:41:16.762Z,24.85
2018-03-24T01:46:19.899Z,27.17
2018-03-24T01:51:22.758Z,30.08
2018-03-24T01:56:25.712Z,29.40
2018-03-24T02:01:29.264Z,31.65
2018-03-24T02:06:33.324Z,28.07
2018-03-24T02:11:36.683Z,31.70
2018-03-24T02:16:39.720Z,31.58
2018-03-24T02:21:45.310Z,34.03
2018-03-24T02:26:49.251Z,36.45
2018-03-24T02:31:52.168Z,38.58
2018-03-24T02:36:54.972Z,36.63
2018-03-24T02:41:57.749Z,34.60
2018-03-24T02:47:00.574Z,39.83
2018-03-24T02:52:03.661Z,40.85
2018-03-24T02:57:06.868Z,40.20
2018-03-24T03:02:09.784Z,41.20
2018-03-24T03:07:12.667Z,41.20
2018-03-24T03:12:15.557Z,41.00
2018-03-24T03:17:18.345Z,37.83
2018-03-24T03:22:22.295Z,38.60
2018-03-24T03:27:25.115Z,37.70
2018-03-24T03:32:28.121Z,42.20
2018-03-24T03:37:31.306Z,35.77
2018-03-24T03:42:34.431Z,40.20
2018-03-24T03:47:37.755Z,38.80
2018-03-24T03:52:41.542Z,36.85
2018-03-24T03:57:44.760Z,42.63
2018-03-24T04:02:47.620Z,35.73
2018-03-24T04:07:50.801Z,35.42
2018-03-24T04:12:54.450Z,39.58
2018-03-24T04:17:57.486Z,35.88
2018-03-24T04:23:00.628Z,37.75
2018-03-24T04:28:04.311Z,35.42
2018-03-24T04:33:07.082Z,34.30
2018-03-24T04:38:09.874Z,33.08
2018-03-24T04:43:13.090Z,34.70
2018-03-24T04:48:16.312Z,37.40
2018-03-24T04:53:19.570Z,30.98
2018-03-24T04:58:23.552Z,35.15
2018-03-24T05:03:26.351Z,35.08
2018-03-24T05:08:29.242Z,32.50
2018-03-24T05:13:32.251Z,33.63
2018-03-24T05:18:35.207Z,46.60
2018-03-24T05:23:39.122Z,37.23
2018-03-24T05:28:42.779Z,32.00
2018-03-24T05:33:45.731Z,36.58
2018-03-24T05:38:48.592Z,45.55
2018-03-24T05:43:51.764Z,54.10
2018-03-24T05:48:54.782Z,44.87
2018-03-24T05:53:58.025Z,48.37
2018-03-24T05:59:00.966Z,47.15
2018-03-24T06:04:05.098Z,37.13
2018-03-24T06:09:08.740Z,35.03
2018-03-24T06:14:11.879Z,55.92
2018-03-24T06:19:14.786Z,58.70
2018-03-24T06:24:17.805Z,39.20
2018-03-24T06:29:20.737Z,35.00
2018-03-24T06:34:24.534Z,60.30
2018-03-24T06:39:27.454Z,61.65
2018-03-24T06:44:31.286Z,89.55
2018-03-24T06:49:35.070Z,43.00
2018-03-24T06:54:37.913Z,86.70
2018-03-24T06:59:41.034Z,105.87
2018-03-24T07:04:43.947Z,70.60
2018-03-24T07:09:46.770Z,86.85
2018-03-24T07:14:49.624Z,68.77
2018-03-24T07:19:52.478Z,56.88
2018-03-24T07:24:55.255Z,47.67
2018-03-24T07:29:59.901Z,46.28
2018-03-24T07:35:02.776Z,39.25
2018-03-24T07:40:05.639Z,40.08
2018-03-24T07:45:08.559Z,45.35
2018-03-24T07:50:11.420Z,39.85
2018-03-24T07:55:14.152Z,40.45
2018-03-24T08:00:17.007Z,39.63
2018-03-24T08:05:19.768Z,40.05
2018-03-24T08:10:22.550Z,43.63
2018-03-24T08:15:26.160Z,39.00
2018-03-24T08:20:29.752Z,39.77
2018-03-24T08:25:32.685Z,40.30
2018-03-24T08:30:36.336Z,39.97
2018-03-24T08:35:39.276Z,36.37
2018-03-24T08:40:44.294Z,35.70
2018-03-24T08:45:47.082Z,34.00
2018-03-24T08:50:55.663Z,33.22
2018-03-24T08:55:58.583Z,34.08
2018-03-24T09:01:02.284Z,32.17
2018-03-24T09:06:05.128Z,30.15
2018-03-24T09:11:07.972Z,26.70
2018-03-24T09:16:10.789Z,27.83
2018-03-24T09:21:13.608Z,25.42
2018-03-24T09:26:17.324Z,23.40
2018-03-24T09:31:20.906Z,21.30
2018-03-24T09:36:23.748Z,20.83
2018-03-24T09:41:26.776Z,17.27
2018-03-24T09:46:30.545Z,17.85
2018-03-24T09:51:33.632Z,18.70
2018-03-24T09:56:36.486Z,16.87
2018-03-24T10:01:41.157Z,17.25
2018-03-24T10:06:45.100Z,13.60
2018-03-24T10:11:48.941Z,11.63
2018-03-24T10:16:52.671Z,13.80
2018-03-24T10:33:01.189Z,9.52
2018-03-24T10:38:04.836Z,11.00
2018-03-24T10:43:13.516Z,7.90
2018-03-24T10:48:17.631Z,9.30
2018-03-24T10:53:20.404Z,12.00
2018-03-24T10:58:23.299Z,13.52
2018-03-24T11:03:26.150Z,12.75
2018-03-24T11:08:29.306Z,13.13
2018-03-24T11:13:32.096Z,12.23
2018-03-24T11:18:36.151Z,12.10
2018-03-24T11:23:39.013Z,12.20
2018-03-24T11:28:42.808Z,11.90
2018-03-24T11:33:45.633Z,10.02
2018-03-24T11:38:49.276Z,10.07
2018-03-24T11:43:52.349Z,10.30
2018-03-24T11:48:55.333Z,10.38
2018-03-24T11:53:59.157Z,11.40
2018-03-24T11:59:02.101Z,9.25
2018-03-24T12:04:05.700Z,10.38
2018-03-24T12:09:08.671Z,9.73
2018-03-24T12:14:15.212Z,9.77
2018-03-24T12:19:20.726Z,9.05
2018-03-24T12:24:23.771Z,10.60
2018-03-24T12:29:28.421Z,9.43
2018-03-24T12:34:34.154Z,9.30
2018-03-24T12:39:37.436Z,9.50
2018-03-24T12:44:41.124Z,9.50
2018-03-24T12:49:43.944Z,8.70
2018-03-24T12:54:47.653Z,9.70
2018-03-24T12:59:50.908Z,8.80
2018-03-24T13:04:53.673Z,8.67
2018-03-24T13:09:56.946Z,9.10
2018-03-24T13:15:00.529Z,9.02
2018-03-24T13:20:03.457Z,9.90
2018-03-24T13:25:06.341Z,11.80
2018-03-24T13:30:09.185Z,12.32
2018-03-24T13:35:12.773Z,11.12
2018-03-24T13:40:15.670Z,11.60
2018-03-24T13:45:19.779Z,11.18
2018-03-24T13:50:22.530Z,10.10
2018-03-24T13:55:25.424Z,10.85
2018-03-24T14:00:29.081Z,12.27
2018-03-24T14:05:32.313Z,11.30
2018-03-24T14:10:36.043Z,12.70
2018-03-24T14:15:39.263Z,12.20
2018-03-24T14:20:42.398Z,12.02
2018-03-24T14:25:45.993Z,10.77
2018-03-24T14:30:49.089Z,17.08
2018-03-24T14:35:51.967Z,10.90
2018-03-24T14:40:54.985Z,11.40
2018-03-24T14:45:58.081Z,12.27
2018-03-24T14:51:01.956Z,11.90
2018-03-24T14:56:05.789Z,12.27
2018-03-24T15:01:08.839Z,11.30
2018-03-24T15:06:11.695Z,11.57
2018-03-24T15:11:14.497Z,13.07
2018-03-24T15:16:17.382Z,13.10
2018-03-24T15:21:21.330Z,12.20
2018-03-24T15:26:24.227Z,12.00
2018-03-24T15:31:39.309Z,12.32
2018-03-24T15:36:45.568Z,11.63
2018-03-24T15:41:49.644Z,11.60
2018-03-24T15:46:53.338Z,11.97
2018-03-24T15:51:56.873Z,12.50
2018-03-24T15:57:01.711Z,12.13
2018-03-24T16:02:04.654Z,13.65
2018-03-24T16:07:07.880Z,18.95
2018-03-24T16:12:10.935Z,15.60
2018-03-24T16:17:14.011Z,14.85
2018-03-24T16:22:18.282Z,15.43
2018-03-24T16:27:21.653Z,14.65
2018-03-24T16:32:25.773Z,15.88
2018-03-24T16:37:31.757Z,16.47
2018-03-24T16:42:34.809Z,16.48
2018-03-24T16:47:38.155Z,22.93
2018-03-24T16:52:41.371Z,28.70
2018-03-24T16:57:44.750Z,22.73
2018-03-24T17:02:47.699Z,40.38
2018-03-24T17:07:51.509Z,19.43
2018-03-24T17:12:54.747Z,17.10
2018-03-24T17:17:57.569Z,17.33
2018-03-24T17:23:00.463Z,20.90
2018-03-24T17:28:03.427Z,19.13
2018-03-24T17:33:06.687Z,15.70
2018-03-24T17:38:10.110Z,24.98
2018-03-24T17:43:13.076Z,22.30
2018-03-24T17:48:16.050Z,17.15
2018-03-24T17:53:18.911Z,16.98
2018-03-24T17:58:21.822Z,12.43
2018-03-24T18:03:24.690Z,11.35
2018-03-24T18:08:27.749Z,12.57
2018-03-24T18:13:30.543Z,13.68
2018-03-24T18:18:33.413Z,11.80
2018-03-24T18:23:36.658Z,19.45
2018-03-24T18:28:39.525Z,14.85
2018-03-24T18:33:42.437Z,12.63
2018-03-24T18:38:45.457Z,12.18
2018-03-24T18:43:48.783Z,19.15
2018-03-24T18:48:51.982Z,36.25
2018-03-24T18:53:55.093Z,19.50
2018-03-24T18:58:57.991Z,14.87
2018-03-24T19:04:00.770Z,10.93
2018-03-24T19:09:03.892Z,12.43
2018-03-24T19:14:06.822Z,18.30
2018-03-24T19:19:12.446Z,15.73
2018-03-24T19:24:15.564Z,16.25
2018-03-24T19:29:19.650Z,14.87
2018-03-24T19:34:22.866Z,13.10
2018-03-24T19:39:25.933Z,18.80
2018-03-24T19:44:29.630Z,18.50
2018-03-24T19:49:32.761Z,20.92
2018-03-24T19:54:36.360Z,20.75
2018-03-24T19:59:39.121Z,17.02
2018-03-24T20:04:45.601Z,17.25
2018-03-24T20:09:48.852Z,12.65
2018-03-24T20:14:52.633Z,10.50
2018-03-24T20:19:55.865Z,12.15
2018-03-24T20:24:58.833Z,13.68
2018-03-24T20:30:01.633Z,13.60
2018-03-24T20:35:06.472Z,13.40
2018-03-24T20:40:09.525Z,12.40
2018-03-24T20:45:14.698Z,35.72
2018-03-24T20:50:18.627Z,28.02
2018-03-24T20:55:24.942Z,37.63
2018-03-24T21:00:27.765Z,27.05
2018-03-24T21:05:30.819Z,21.77
2018-03-24T21:10:34.512Z,15.73
2018-03-24T21:15:37.554Z,38.15
2018-03-24T21:20:41.232Z,31.08
2018-03-24T21:25:44.340Z,16.90
2018-03-24T21:30:48.470Z,21.57
2018-03-24T21:35:55.442Z,18.13
2018-03-24T21:40:59.113Z,13.67
2018-03-24T21:46:02.853Z,17.40
2018-03-24T21:51:05.796Z,17.17
2018-03-24T21:56:08.680Z,18.37
2018-03-24T22:01:11.541Z,16.08
2018-03-24T22:06:15.231Z,16.12
2018-03-24T22:11:18.148Z,15.93
2018-03-24T22:16:20.996Z,15.80
2018-03-24T22:21:23.972Z,15.02
2018-03-24T22:26:27.816Z,16.45
2018-03-24T22:31:30.978Z,15.70
2018-03-24T22:36:33.779Z,19.73
2018-03-24T22:41:36.555Z,22.60
2018-03-24T22:46:39.422Z,21.13
2018-03-24T22:51:42.588Z,24.63
2018-03-24T22:56:46.704Z,24.58
2018-03-24T23:01:51.665Z,22.83
2018-03-24T23:06:54.719Z,21.15
2018-03-24T23:11:57.738Z,18.17
2018-03-24T23:17:00.707Z,19.77
2018-03-24T23:22:04.110Z,22.62
2018-03-24T23:27:08.102Z,20.12
2018-03-24T23:32:11.138Z,17.40
2018-03-24T23:37:14.671Z,16.70
2018-03-24T23:42:19.372Z,19.00
2018-03-24T23:47:22.179Z,14.02
2018-03-24T23:52:24.932Z,13.65
2018-03-24T23:57:28.015Z,13.90
